createdAt,value
2023-03-19T00:01:06.937Z,16.6
2023-03-19T00:06:59.457Z,16.5
2023-03-19T00:12:36.601Z,16.4
2023-03-19T00:18:13.555Z,16.3
2023-03-19T00:24:06.620Z,16.2
2023-03-19T00:29:59.701Z,16.1
2023-03-19T00:35:53.493Z,16
2023-03-19T00:41:47.459Z,16
2023-03-19T00:47:25.799Z,16.1
2023-03-19T00:53:03.164Z,16.3
2023-03-19T00:58:41.127Z,16.2
2023-03-19T01:04:18.736Z,16.1
2023-03-19T01:09:56.240Z,16.1
2023-03-19T01:15:49.882Z,16
2023-03-19T01:21:42.313Z,15.9
2023-03-19T01:27:34.137Z,15.8
2023-03-19T01:33:11.718Z,15.7
2023-03-19T01:38:48.691Z,15.8
2023-03-19T01:44:26.863Z,15.9
2023-03-19T01:50:05.182Z,16.1
2023-03-19T01:55:43.460Z,16
2023-03-19T02:01:36.999Z,15.8
2023-03-19T02:07:14.152Z,15.7
2023-03-19T02:13:06.229Z,15.6
2023-03-19T02:18:44.229Z,15.6
2023-03-19T02:24:22.002Z,15.5
2023-03-19T02:29:59.468Z,15.5
2023-03-19T02:35:37.386Z,15.6
2023-03-19T02:41:14.178Z,15.8
2023-03-19T02:46:35.970Z,15.8
2023-03-19T02:52:13.584Z,15.7
2023-03-19T02:57:50.183Z,15.6
2023-03-19T03:03:28.074Z,15.5
2023-03-19T03:09:05.441Z,15.4
2023-03-19T03:14:11.798Z,15.3
2023-03-19T03:20:05.392Z,15.3
2023-03-19T03:25:59.243Z,15.4
2023-03-19T03:31:51.659Z,15.4
2023-03-19T03:37:29.286Z,15.5
2023-03-19T03:43:22.243Z,15.6
2023-03-19T03:49:14.580Z,15.8
2023-03-19T03:54:51.966Z,15.6
2023-03-19T04:00:13.551Z,15.5
2023-03-19T04:05:50.736Z,15.4
2023-03-19T04:11:43.415Z,15.3
2023-03-19T04:17:04.901Z,15.2
2023-03-19T04:22:57.421Z,15.1
2023-03-19T04:28:18.914Z,15.2
2023-03-19T04:33:56.365Z,15.3
2023-03-19T04:39:49.319Z,15.4
2023-03-19T04:45:42.185Z,15.4
2023-03-19T04:51:34.608Z,15.4
2023-03-19T04:57:27.373Z,15.3
2023-03-19T05:03:20.850Z,15.1
2023-03-19T05:08:58.331Z,15.1
2023-03-19T05:14:50.191Z,15.1
2023-03-19T05:20:42.762Z,15.3
2023-03-19T05:26:04.562Z,15.4
2023-03-19T05:31:58.099Z,15.4
2023-03-19T05:37:38.524Z,15.3
2023-03-19T05:43:15.432Z,15.3
2023-03-19T05:49:08.139Z,15.2
2023-03-19T05:55:00.951Z,15.1
2023-03-19T06:00:54.849Z,15
2023-03-19T06:06:50.000Z,14.9
2023-03-19T06:12:42.389Z,15.1
2023-03-19T06:18:35.637Z,15.3
2023-03-19T06:24:28.432Z,15.3
2023-03-19T06:30:21.049Z,15.3
2023-03-19T06:36:14.113Z,15.2
2023-03-19T06:42:06.768Z,15.1
2023-03-19T06:47:59.509Z,15
2023-03-19T06:53:52.248Z,14.9
2023-03-19T06:59:45.239Z,14.9
2023-03-19T07:05:38.993Z,15
2023-03-19T07:11:34.553Z,15.1
2023-03-19T07:17:28.592Z,15.1
2023-03-19T07:23:21.733Z,15.3
2023-03-19T07:29:14.400Z,15.3
2023-03-19T07:34:51.085Z,15.2
2023-03-19T07:40:51.477Z,15.2
2023-03-19T07:46:52.679Z,15
2023-03-19T07:53:03.030Z,15
2023-03-19T07:58:57.388Z,15.1
2023-03-19T08:04:52.875Z,15.3
2023-03-19T08:10:45.959Z,15.4
2023-03-19T08:16:39.394Z,15.4
2023-03-19T08:22:32.649Z,15.3
2023-03-19T08:28:28.836Z,15.4
2023-03-19T08:34:22.279Z,15.5
2023-03-19T08:40:14.616Z,15.6
2023-03-19T08:46:07.110Z,15.5
2023-03-19T08:52:00.512Z,15.4
2023-03-19T08:57:53.041Z,15.4
2023-03-19T09:03:45.973Z,15.6
2023-03-19T09:09:23.377Z,15.6
2023-03-19T09:15:17.614Z,15.6
2023-03-19T09:21:11.863Z,15.4
2023-03-19T09:26:51.231Z,15.6
2023-03-19T09:32:27.786Z,15.7
2023-03-19T09:38:08.476Z,15.7
2023-03-19T09:44:01.509Z,15.6
2023-03-19T09:49:41.357Z,15.5
2023-03-19T09:55:18.545Z,15.8
2023-03-19T10:00:56.482Z,15.8
2023-03-19T10:06:34.545Z,15.7
2023-03-19T10:12:26.893Z,15.6
2023-03-19T10:18:23.539Z,15.6
2023-03-19T10:24:17.396Z,15.8
2023-03-19T10:29:55.346Z,15.8
2023-03-19T10:35:48.546Z,15.7
2023-03-19T10:41:42.136Z,15.6
2023-03-19T10:47:35.942Z,15.8
2023-03-19T10:53:28.740Z,15.8
2023-03-19T10:59:21.746Z,15.6
2023-03-19T11:04:58.949Z,15.6
2023-03-19T11:11:04.733Z,15.4
2023-03-19T11:16:57.497Z,15.4
2023-03-19T11:22:37.420Z,15.6
2023-03-19T11:28:29.971Z,15.7
2023-03-19T11:34:17.950Z,15.8
2023-03-19T11:40:12.100Z,15.6
2023-03-19T11:45:49.827Z,15.7
2023-03-19T11:51:38.068Z,15.8
2023-03-19T11:57:16.019Z,15.8
2023-03-19T12:03:08.926Z,15.8
2023-03-19T12:09:01.552Z,15.7
2023-03-19T12:14:55.556Z,15.8
2023-03-19T12:20:54.384Z,15.9
2023-03-19T12:26:47.034Z,15.8
2023-03-19T12:32:40.129Z,15.7
2023-03-19T12:38:33.872Z,15.7
2023-03-19T12:44:26.373Z,15.8
2023-03-19T12:50:06.895Z,15.9
2023-03-19T12:55:45.166Z,15.8
2023-03-19T13:01:38.134Z,15.8
2023-03-19T13:07:31.249Z,15.8
2023-03-19T13:13:24.571Z,15.9
2023-03-19T13:19:18.577Z,15.9
2023-03-19T13:25:11.945Z,15.9
2023-03-19T13:30:49.806Z,15.9
2023-03-19T13:36:44.520Z,15.9
2023-03-19T13:42:37.305Z,15.9
2023-03-19T13:48:40.909Z,15.9
2023-03-19T13:54:36.060Z,15.9
2023-03-19T14:00:38.085Z,15.8
2023-03-19T14:06:31.573Z,15.9
2023-03-19T14:12:09.355Z,15.9
2023-03-19T14:18:03.748Z,15.9
2023-03-19T14:25:11.298Z,15.9
2023-03-19T14:30:51.538Z,15.9
2023-03-19T14:36:29.056Z,15.9
2023-03-19T14:42:09.213Z,16.1
2023-03-19T14:48:02.891Z,16
2023-03-19T14:53:58.475Z,15.9
2023-03-19T14:59:37.183Z,15.8
2023-03-19T15:05:33.876Z,16.1
2023-03-19T15:11:29.604Z,16.1
2023-03-19T15:17:23.795Z,15.9
2023-03-19T15:22:52.409Z,15.9
2023-03-19T15:29:01.140Z,15.9
2023-03-19T15:36:29.506Z,16
2023-03-19T15:42:23.263Z,16.1
2023-03-19T15:48:16.056Z,16
2023-03-19T15:54:10.321Z,15.9
2023-03-19T16:00:02.434Z,15.9
2023-03-19T16:06:30.663Z,16
2023-03-19T16:12:23.642Z,16.1
2023-03-19T16:18:16.493Z,16.1
2023-03-19T16:24:10.644Z,16
2023-03-19T16:30:04.037Z,15.9
2023-03-19T16:35:57.526Z,16.1
2023-03-19T16:41:50.040Z,16.3
2023-03-19T16:47:43.388Z,16.3
2023-03-19T16:53:19.470Z,16.1
2023-03-19T16:59:12.036Z,16
2023-03-19T17:05:05.204Z,16.1
2023-03-19T17:10:57.850Z,16.2
2023-03-19T17:16:35.043Z,16.2
2023-03-19T17:22:27.681Z,16.1
2023-03-19T17:28:07.610Z,16.1
2023-03-19T17:33:31.828Z,16.1
2023-03-19T17:39:27.922Z,16.2
2023-03-19T17:45:21.319Z,16.2
2023-03-19T17:50:59.020Z,16.1
2023-03-19T17:56:23.141Z,16.1
2023-03-19T18:02:16.654Z,16
2023-03-19T18:08:10.863Z,15.9
2023-03-19T18:13:48.898Z,15.9
2023-03-19T18:19:42.594Z,16.1
2023-03-19T18:25:21.094Z,16.1
2023-03-19T18:30:59.853Z,16.1
2023-03-19T18:36:57.008Z,16
2023-03-19T18:42:49.216Z,15.9
2023-03-19T18:48:27.628Z,15.9
2023-03-19T18:54:16.099Z,15.8
2023-03-19T19:00:11.577Z,15.9
2023-03-19T19:06:04.171Z,16
2023-03-19T19:11:54.331Z,16
2023-03-19T19:18:03.511Z,15.9
2023-03-19T19:23:56.493Z,15.9
2023-03-19T19:28:48.485Z,15.8
2023-03-19T19:34:26.786Z,15.8
2023-03-19T19:40:21.697Z,15.8
2023-03-19T19:46:17.090Z,15.9
2023-03-19T19:52:12.717Z,15.9
2023-03-19T19:57:53.257Z,15.9
2023-03-19T20:03:44.108Z,15.8
2023-03-19T20:09:06.798Z,15.7
2023-03-19T20:14:44.929Z,15.6
2023-03-19T20:20:38.667Z,15.6
2023-03-19T20:26:17.321Z,15.8
2023-03-19T20:31:41.282Z,15.9
2023-03-19T20:37:56.192Z,15.8
2023-03-19T20:43:49.219Z,15.8
2023-03-19T20:49:28.593Z,15.6
2023-03-19T20:55:06.688Z,15.6
2023-03-19T21:01:00.098Z,15.6
2023-03-19T21:06:52.352Z,15.6
2023-03-19T21:12:30.561Z,15.8
2023-03-19T21:18:23.594Z,15.8
2023-03-19T21:24:15.659Z,15.7
2023-03-19T21:30:07.666Z,15.6
2023-03-19T21:36:00.338Z,15.5
2023-03-19T21:41:52.821Z,15.4
2023-03-19T21:47:46.954Z,15.4
2023-03-19T21:53:52.841Z,15.3
2023-03-19T21:59:46.031Z,15.4
2023-03-19T22:05:38.887Z,15.6
2023-03-19T22:11:34.320Z,15.7
2023-03-19T22:17:27.077Z,15.8
2023-03-19T22:23:19.784Z,15.7
2023-03-19T22:29:15.619Z,15.6
2023-03-19T22:34:55.097Z,15.6
2023-03-19T22:40:33.457Z,15.6
2023-03-19T22:46:27.723Z,15.4
2023-03-19T22:51:50.579Z,15.4
2023-03-19T22:57:13.214Z,15.5
2023-03-19T23:03:05.399Z,15.8
2023-03-19T23:09:14.162Z,15.8
2023-03-19T23:15:19.680Z,15.7
2023-03-19T23:21:12.527Z,15.7
2023-03-19T23:26:49.619Z,15.6
2023-03-19T23:32:43.922Z,15.5
2023-03-19T23:38:48.761Z,15.4
2023-03-19T23:44:44.750Z,15.3
2023-03-19T23:50:37.325Z,15.4
2023-03-19T23:56:29.849Z,15.7
